logo
Search for airport 
image banner adimage banner adimage banner ad
image banner ad

SCQP - La Araucania

Located in Freire, Chile

ICAO - , IATA -

Data provided by Airmate  

General information

Coordinates: S38°55'33" W72°39'6"
Elevation is 321 feet MSL.
Magnetic variation is 6° East
View others Airports in Araucanía

Operational data

Special qualification required
Current time UTC:
Current local time:
Weather
METAR: SCQP 211500Z 05010KT 9999 BKN015 12/10 Q1013
TAF: TAF SCQP 211024Z 2112/2212 03007KT 9999 BKN035 TN09/2112Z TX14/2117Z TEMPO 2121/2202 5000 -SHRA BKN025 BECMG 2207/2209 30007KT
View NOTAMs / SUP AIP / TFR affecting this airport [VIEW]
Communications frequencies: [VIEW]

Runways:

RWY identifierQFULength (ft)Width (ft)SurfaceLDA (ft)
018005148UNK
198005148UNK

Airport contact information

Address: Freire Chile

Satellite view of SCQP